createdAt,value
2024-05-09T00:00:40.706Z,12.68
2024-05-09T00:01:44.364Z,12.73
2024-05-09T00:02:46.547Z,12.76
2024-05-09T00:03:49.027Z,12.67
2024-05-09T00:04:51.328Z,12.65
2024-05-09T00:05:53.359Z,12.67
2024-05-09T00:06:55.385Z,12.73
2024-05-09T00:07:57.376Z,12.76
2024-05-09T00:08:59.346Z,12.83
2024-05-09T00:10:01.294Z,12.86
2024-05-09T00:11:03.369Z,12.90
2024-05-09T00:12:05.779Z,12.92
2024-05-09T00:13:08.280Z,12.95
2024-05-09T00:14:10.775Z,12.94
2024-05-09T00:15:13.043Z,12.96
2024-05-09T00:16:14.935Z,13.00
2024-05-09T00:17:16.964Z,13.01
2024-05-09T00:18:19.132Z,13.05
2024-05-09T00:19:21.465Z,13.03
2024-05-09T00:20:28.590Z,13.00
2024-05-09T00:21:41.493Z,12.96
2024-05-09T00:22:43.930Z,12.95
2024-05-09T00:23:45.952Z,12.96
2024-05-09T00:24:48.203Z,12.98
2024-05-09T00:25:50.180Z,12.96
2024-05-09T00:26:52.078Z,12.96
2024-05-09T00:27:54.007Z,12.96
2024-05-09T00:28:56.083Z,12.99
2024-05-09T00:29:58.042Z,13.00
2024-05-09T00:31:00.003Z,12.97
2024-05-09T00:32:02.142Z,12.93
2024-05-09T00:33:06.511Z,12.92
2024-05-09T00:34:10.296Z,12.93
2024-05-09T00:35:12.404Z,12.91
2024-05-09T00:36:14.260Z,12.90
2024-05-09T00:37:19.914Z,12.90
2024-05-09T00:38:22.030Z,12.86
2024-05-09T00:39:23.975Z,12.88
2024-05-09T00:40:35.511Z,12.91
2024-05-09T00:41:42.546Z,12.92
2024-05-09T00:42:47.001Z,12.93
2024-05-09T00:43:48.982Z,12.95
2024-05-09T00:44:54.077Z,12.89
2024-05-09T00:45:57.880Z,12.81
2024-05-09T00:46:59.885Z,12.77
2024-05-09T00:48:03.591Z,12.67
2024-05-09T00:49:06.679Z,12.61
2024-05-09T00:50:15.754Z,12.63
2024-05-09T00:51:21.949Z,12.66
2024-05-09T00:52:25.228Z,12.67
2024-05-09T00:53:27.313Z,12.70
2024-05-09T00:54:30.123Z,12.69
2024-05-09T00:55:32.483Z,12.70
2024-05-09T00:56:35.762Z,12.66
2024-05-09T00:57:39.843Z,12.58
2024-05-09T00:58:42.268Z,12.58
2024-05-09T00:59:44.387Z,12.56
2024-05-09T01:00:46.779Z,12.55
2024-05-09T01:01:50.050Z,12.56
2024-05-09T01:02:52.525Z,12.58
2024-05-09T01:03:54.770Z,12.59
2024-05-09T01:04:56.993Z,12.63
2024-05-09T01:05:59.060Z,12.63
2024-05-09T01:07:01.122Z,12.59
2024-05-09T01:08:03.358Z,12.55
2024-05-09T01:09:05.928Z,12.50
2024-05-09T01:10:14.063Z,12.49
2024-05-09T01:11:23.698Z,12.54
2024-05-09T01:12:25.733Z,12.58
2024-05-09T01:13:27.660Z,12.60
2024-05-09T01:14:29.799Z,12.61
2024-05-09T01:15:31.859Z,12.52
2024-05-09T01:16:34.182Z,12.44
2024-05-09T01:17:36.356Z,12.40
2024-05-09T01:18:38.682Z,12.41
2024-05-09T01:19:40.848Z,12.47
2024-05-09T01:20:44.833Z,12.49
2024-05-09T01:21:47.647Z,12.49
2024-05-09T01:22:51.505Z,12.52
2024-05-09T01:23:53.344Z,12.57
2024-05-09T01:24:55.299Z,12.60
2024-05-09T01:25:57.260Z,12.60
2024-05-09T01:26:59.331Z,12.59
2024-05-09T01:28:01.651Z,12.57
2024-05-09T01:29:03.941Z,12.57
2024-05-09T01:30:09.537Z,12.55
2024-05-09T01:31:16.884Z,12.54
2024-05-09T01:32:18.832Z,12.50
2024-05-09T01:33:20.929Z,12.46
2024-05-09T01:34:22.968Z,12.48
2024-05-09T01:35:24.876Z,12.49
2024-05-09T01:36:27.204Z,12.47
2024-05-09T01:37:29.128Z,12.48
2024-05-09T01:38:31.243Z,12.46
2024-05-09T01:39:33.528Z,12.49
2024-05-09T01:40:38.919Z,12.49
2024-05-09T01:41:42.535Z,12.49
2024-05-09T01:42:44.539Z,12.47
2024-05-09T01:43:46.495Z,12.43
2024-05-09T01:44:48.404Z,12.39
2024-05-09T01:45:50.351Z,12.37
2024-05-09T01:46:52.744Z,12.36
2024-05-09T01:47:55.293Z,12.40
2024-05-09T01:48:57.920Z,12.45
2024-05-09T01:49:59.831Z,12.47
2024-05-09T01:51:01.906Z,12.50
2024-05-09T01:52:03.937Z,12.53
2024-05-09T01:53:06.040Z,12.56
2024-05-09T01:54:07.942Z,12.58
2024-05-09T01:55:10.112Z,12.61
2024-05-09T01:56:12.213Z,12.62
2024-05-09T01:57:14.306Z,12.59
2024-05-09T01:58:16.360Z,12.60
2024-05-09T01:59:18.457Z,12.58
2024-05-09T02:00:30.227Z,12.44
2024-05-09T02:01:56.426Z,12.33
2024-05-09T02:02:59.893Z,12.27
2024-05-09T02:04:02.341Z,12.30
2024-05-09T02:05:04.857Z,12.30
2024-05-09T02:06:06.912Z,12.29
2024-05-09T02:07:09.231Z,12.32
2024-05-09T02:08:18.523Z,12.34
2024-05-09T02:09:21.057Z,12.35
2024-05-09T02:10:30.259Z,12.37
2024-05-09T02:11:41.159Z,12.39
2024-05-09T02:12:43.517Z,12.42
2024-05-09T02:13:45.539Z,12.47
2024-05-09T02:14:47.523Z,12.51
2024-05-09T02:15:52.574Z,12.53
2024-05-09T02:16:54.562Z,12.55
2024-05-09T02:17:56.632Z,12.55
2024-05-09T02:18:59.026Z,12.57
2024-05-09T02:20:01.300Z,12.56
2024-05-09T02:21:03.533Z,12.55
2024-05-09T02:22:05.702Z,12.55
2024-05-09T02:23:08.633Z,12.50
2024-05-09T02:24:10.971Z,12.47
2024-05-09T02:25:12.934Z,12.41
2024-05-09T02:26:14.953Z,12.40
2024-05-09T02:27:16.974Z,12.40
2024-05-09T02:28:21.149Z,12.44
2024-05-09T02:29:23.106Z,12.48
2024-05-09T02:30:35.024Z,12.48
2024-05-09T02:31:42.127Z,12.48
2024-05-09T02:32:44.025Z,12.48
2024-05-09T02:33:46.358Z,12.47
2024-05-09T02:34:48.590Z,12.48
2024-05-09T02:35:50.818Z,12.49
2024-05-09T02:36:56.544Z,12.46
2024-05-09T02:37:58.579Z,12.46
2024-05-09T02:39:00.570Z,12.41
2024-05-09T02:40:05.744Z,12.38
2024-05-09T02:41:09.151Z,12.30
2024-05-09T02:42:11.062Z,12.30
2024-05-09T02:43:13.421Z,12.34
2024-05-09T02:44:15.351Z,12.37
2024-05-09T02:45:17.674Z,12.38
2024-05-09T02:46:19.519Z,12.37
2024-05-09T02:47:21.703Z,12.33
2024-05-09T02:48:23.982Z,12.34
2024-05-09T02:49:26.446Z,12.35
2024-05-09T02:50:34.623Z,12.36
2024-05-09T02:51:40.797Z,12.35
2024-05-09T02:52:42.786Z,12.37
2024-05-09T02:53:44.716Z,12.35
2024-05-09T02:54:46.660Z,12.26
2024-05-09T02:55:48.641Z,12.17
2024-05-09T02:56:50.584Z,12.18
2024-05-09T02:57:52.607Z,12.17
2024-05-09T02:58:54.638Z,12.17
2024-05-09T02:59:56.591Z,12.14
2024-05-09T03:00:58.946Z,12.14
2024-05-09T03:02:01.054Z,12.15
2024-05-09T03:03:03.225Z,12.17
2024-05-09T03:04:05.560Z,12.18
2024-05-09T03:05:07.645Z,12.16
2024-05-09T03:06:09.694Z,12.17
2024-05-09T03:07:11.897Z,12.18
2024-05-09T03:08:14.065Z,12.16
2024-05-09T03:09:17.476Z,12.12
2024-05-09T03:10:25.401Z,12.06
2024-05-09T03:11:30.782Z,12.01
2024-05-09T03:12:33.261Z,11.93
2024-05-09T03:13:36.051Z,11.86
2024-05-09T03:14:38.274Z,11.87
2024-05-09T03:15:40.393Z,11.87
2024-05-09T03:16:42.383Z,11.91
2024-05-09T03:17:44.448Z,11.93
2024-05-09T03:18:46.894Z,11.90
2024-05-09T03:19:48.970Z,11.93
2024-05-09T03:20:50.989Z,11.93
2024-05-09T03:21:52.819Z,11.95
2024-05-09T03:22:56.768Z,11.97
2024-05-09T03:23:58.943Z,12.00
2024-05-09T03:25:00.909Z,11.95
2024-05-09T03:26:03.038Z,11.94
2024-05-09T03:27:04.925Z,11.96
2024-05-09T03:28:07.092Z,11.98
2024-05-09T03:29:09.073Z,11.98
2024-05-09T03:30:15.484Z,11.97
2024-05-09T03:31:20.643Z,11.95
2024-05-09T03:32:22.734Z,11.93
2024-05-09T03:33:24.816Z,11.90
2024-05-09T03:34:27.066Z,11.84
2024-05-09T03:35:29.291Z,11.82
2024-05-09T03:36:31.441Z,11.84
2024-05-09T03:37:33.318Z,11.84
2024-05-09T03:38:39.072Z,11.85
2024-05-09T03:39:40.998Z,11.88
2024-05-09T03:40:46.862Z,11.92
2024-05-09T03:41:49.452Z,11.90
2024-05-09T03:42:51.463Z,11.91
2024-05-09T03:43:53.416Z,11.93
2024-05-09T03:44:55.296Z,11.95
2024-05-09T03:45:57.595Z,11.94
2024-05-09T03:46:59.618Z,11.93
2024-05-09T03:48:01.612Z,11.93
2024-05-09T03:49:03.635Z,11.84
2024-05-09T03:50:06.027Z,11.77
2024-05-09T03:51:09.980Z,11.67
2024-05-09T03:52:12.027Z,11.55
2024-05-09T03:53:14.816Z,11.48
2024-05-09T03:54:16.769Z,11.43
2024-05-09T03:55:19.218Z,11.35
2024-05-09T03:56:21.266Z,11.28
2024-05-09T03:57:23.162Z,11.26
2024-05-09T03:58:25.073Z,11.25
2024-05-09T03:59:27.117Z,11.32
2024-05-09T04:00:36.843Z,11.41
2024-05-09T04:01:40.959Z,11.51
2024-05-09T04:02:43.846Z,11.59
2024-05-09T04:03:46.310Z,11.64
2024-05-09T04:04:48.592Z,11.67
2024-05-09T04:05:50.611Z,11.71
2024-05-09T04:06:52.720Z,11.77
2024-05-09T04:07:55.225Z,11.80
2024-05-09T04:08:57.095Z,11.85
2024-05-09T04:09:59.212Z,11.88
2024-05-09T04:11:01.314Z,11.90
2024-05-09T04:12:03.386Z,11.92
2024-05-09T04:13:05.441Z,11.91
2024-05-09T04:14:07.498Z,11.91
2024-05-09T04:15:12.863Z,11.91
2024-05-09T04:16:15.385Z,11.94
2024-05-09T04:17:17.362Z,11.92
2024-05-09T04:18:19.427Z,11.88
2024-05-09T04:19:21.688Z,11.86
2024-05-09T04:20:33.376Z,11.90
2024-05-09T04:21:40.413Z,11.89
2024-05-09T04:22:42.343Z,11.89
2024-05-09T04:23:44.280Z,11.85
2024-05-09T04:24:46.226Z,11.88
2024-05-09T04:25:48.178Z,11.87
2024-05-09T04:26:50.254Z,11.90
2024-05-09T04:27:56.006Z,11.94
2024-05-09T04:28:58.418Z,11.91
2024-05-09T04:30:00.699Z,11.91
2024-05-09T04:31:02.576Z,11.90
2024-05-09T04:32:05.668Z,11.91
2024-05-09T04:33:09.521Z,11.96
2024-05-09T04:34:13.810Z,11.99
2024-05-09T04:35:18.556Z,11.95
2024-05-09T04:36:20.628Z,11.97
2024-05-09T04:37:22.843Z,12.00
2024-05-09T04:38:24.948Z,12.03
2024-05-09T04:39:26.853Z,11.90
2024-05-09T04:40:33.931Z,11.88
2024-05-09T04:41:38.862Z,11.88
2024-05-09T04:42:41.593Z,11.90
2024-05-09T04:43:43.579Z,11.94
2024-05-09T04:44:45.501Z,11.96
2024-05-09T04:45:47.515Z,12.00
2024-05-09T04:46:49.595Z,11.98
2024-05-09T04:47:51.956Z,12.00
2024-05-09T04:48:54.666Z,12.03
2024-05-09T04:49:57.178Z,12.09
2024-05-09T04:50:59.146Z,12.11
2024-05-09T04:52:01.100Z,12.12
2024-05-09T04:53:03.223Z,12.11
2024-05-09T04:54:05.604Z,12.12
2024-05-09T04:55:08.766Z,12.15
2024-05-09T04:56:10.758Z,12.17
2024-05-09T04:57:12.675Z,12.21
2024-05-09T04:58:14.534Z,12.22
2024-05-09T04:59:16.504Z,12.26
2024-05-09T05:00:28.096Z,12.27
2024-05-09T05:01:34.797Z,12.30
2024-05-09T05:02:37.614Z,12.27
2024-05-09T05:03:40.026Z,12.28
2024-05-09T05:04:42.721Z,12.29
2024-05-09T05:05:46.175Z,12.18
2024-05-09T05:06:48.803Z,12.16
2024-05-09T05:07:50.849Z,12.11
2024-05-09T05:08:52.817Z,12.03
2024-05-09T05:09:54.737Z,11.96
2024-05-09T05:10:56.750Z,11.90
2024-05-09T05:12:00.271Z,11.85
2024-05-09T05:13:20.414Z,11.82
2024-05-09T05:14:23.864Z,11.72
2024-05-09T05:15:25.815Z,11.77
2024-05-09T05:16:27.859Z,11.84
2024-05-09T05:17:29.898Z,11.87
2024-05-09T05:18:32.034Z,11.94
2024-05-09T05:19:34.210Z,12.01
2024-05-09T05:20:36.440Z,12.08
2024-05-09T05:21:38.404Z,12.12
2024-05-09T05:22:43.363Z,12.15
2024-05-09T05:23:45.315Z,12.11
2024-05-09T05:24:47.323Z,12.10
2024-05-09T05:25:51.277Z,12.10
2024-05-09T05:26:53.331Z,12.15
2024-05-09T05:27:55.213Z,12.17
2024-05-09T05:28:57.275Z,12.23
2024-05-09T05:29:59.207Z,12.27
2024-05-09T05:31:00.990Z,12.25
2024-05-09T05:32:02.947Z,12.23
2024-05-09T05:33:06.673Z,12.25
2024-05-09T05:34:09.202Z,12.21
2024-05-09T05:35:11.559Z,12.26
2024-05-09T05:36:13.516Z,12.30
2024-05-09T05:37:15.449Z,12.31
2024-05-09T05:38:17.519Z,12.32
2024-05-09T05:39:19.440Z,12.31
2024-05-09T05:40:28.508Z,12.31
2024-05-09T05:41:37.718Z,12.34
2024-05-09T05:42:39.835Z,12.36
2024-05-09T05:43:41.836Z,12.38
2024-05-09T05:44:43.761Z,12.40
2024-05-09T05:45:46.340Z,12.43
2024-05-09T05:46:48.276Z,12.39
2024-05-09T05:47:50.630Z,12.38
2024-05-09T05:48:53.088Z,12.39
2024-05-09T05:49:55.338Z,12.34
2024-05-09T05:50:57.880Z,12.30
2024-05-09T05:52:00.548Z,12.24
2024-05-09T05:53:02.480Z,12.18
2024-05-09T05:54:04.491Z,12.14
2024-05-09T05:55:06.506Z,12.12
2024-05-09T05:56:08.530Z,12.06
2024-05-09T05:57:10.447Z,12.00
2024-05-09T05:58:12.714Z,11.96
2024-05-09T05:59:15.633Z,11.95
2024-05-09T06:00:25.903Z,11.98
2024-05-09T06:01:32.530Z,12.00
2024-05-09T06:02:35.352Z,12.07
2024-05-09T06:03:37.649Z,12.13
2024-05-09T06:04:39.927Z,12.19
2024-05-09T06:05:46.255Z,12.23
2024-05-09T06:06:48.818Z,12.30
2024-05-09T06:07:50.786Z,12.32
2024-05-09T06:08:52.866Z,12.36
2024-05-09T06:09:56.454Z,12.38
2024-05-09T06:10:58.528Z,12.35
2024-05-09T06:12:00.715Z,12.36
2024-05-09T06:13:03.135Z,12.37
2024-05-09T06:14:05.938Z,12.40
2024-05-09T06:15:07.987Z,12.46
2024-05-09T06:16:10.061Z,12.53
2024-05-09T06:17:12.138Z,12.55
2024-05-09T06:18:14.664Z,12.57
2024-05-09T06:19:17.256Z,12.53
2024-05-09T06:20:24.045Z,12.59
2024-05-09T06:21:33.832Z,12.67
2024-05-09T06:22:35.760Z,12.76
2024-05-09T06:23:45.511Z,12.83
2024-05-09T06:24:47.767Z,12.92
2024-05-09T06:25:49.684Z,12.91
2024-05-09T06:26:51.570Z,12.97
2024-05-09T06:27:53.465Z,13.04
2024-05-09T06:28:55.543Z,13.09
2024-05-09T06:29:57.508Z,13.09
2024-05-09T06:31:01.525Z,13.12
2024-05-09T06:32:03.616Z,13.17
2024-05-09T06:33:06.235Z,13.17
2024-05-09T06:34:08.672Z,13.23
2024-05-09T06:35:10.809Z,13.24
2024-05-09T06:36:12.857Z,13.29
2024-05-09T06:37:14.665Z,13.32
2024-05-09T06:38:16.697Z,13.33
2024-05-09T06:39:18.557Z,13.35
2024-05-09T06:40:25.721Z,13.37
2024-05-09T06:41:36.610Z,13.42
2024-05-09T06:42:38.598Z,13.43
2024-05-09T06:43:40.901Z,13.45
2024-05-09T06:44:42.799Z,13.45
2024-05-09T06:45:46.280Z,13.41
2024-05-09T06:46:48.216Z,13.43
2024-05-09T06:47:50.350Z,13.41
2024-05-09T06:48:53.220Z,13.39
2024-05-09T06:49:55.792Z,13.41
2024-05-09T06:50:58.023Z,13.46
2024-05-09T06:52:00.011Z,13.52
2024-05-09T06:53:02.053Z,13.57
2024-05-09T06:54:06.336Z,13.54
2024-05-09T06:55:08.274Z,13.56
2024-05-09T06:56:10.364Z,13.58
2024-05-09T06:57:12.279Z,13.64
2024-05-09T06:58:14.258Z,13.65
2024-05-09T06:59:16.233Z,13.65
2024-05-09T07:00:26.907Z,13.67
2024-05-09T07:01:33.651Z,13.70
2024-05-09T07:02:35.870Z,13.73
2024-05-09T07:03:37.969Z,13.78
2024-05-09T07:04:40.027Z,13.72
2024-05-09T07:05:42.100Z,13.73
2024-05-09T07:06:44.168Z,13.68
2024-05-09T07:07:46.223Z,13.65
2024-05-09T07:08:48.790Z,13.68
2024-05-09T07:09:52.410Z,13.70
2024-05-09T07:10:54.698Z,13.72
2024-05-09T07:11:56.790Z,13.72
2024-05-09T07:12:58.806Z,13.66
2024-05-09T07:14:00.753Z,13.68
2024-05-09T07:15:02.646Z,13.68
2024-05-09T07:16:04.772Z,13.70
2024-05-09T07:17:06.907Z,13.75
2024-05-09T07:18:13.811Z,13.76
2024-05-09T07:19:16.550Z,13.78
2024-05-09T07:20:23.747Z,13.87
2024-05-09T07:21:34.792Z,13.91
2024-05-09T07:22:36.908Z,13.92
2024-05-09T07:23:38.984Z,13.89
2024-05-09T07:24:40.914Z,13.87
2024-05-09T07:25:43.073Z,13.91
2024-05-09T07:26:45.263Z,13.90
2024-05-09T07:27:47.274Z,13.92
2024-05-09T07:28:49.289Z,13.97
2024-05-09T07:29:51.697Z,14.03
2024-05-09T07:30:53.620Z,14.05
2024-05-09T07:31:55.777Z,14.11
2024-05-09T07:32:58.385Z,14.09
2024-05-09T07:34:01.588Z,14.11
2024-05-09T07:35:03.833Z,14.07
2024-05-09T07:36:05.908Z,14.10
2024-05-09T07:37:12.878Z,14.15
2024-05-09T07:38:15.064Z,14.21
2024-05-09T07:39:17.244Z,14.17
2024-05-09T07:40:28.546Z,14.19
2024-05-09T07:41:37.886Z,14.26
2024-05-09T07:42:39.807Z,14.32
2024-05-09T07:43:41.779Z,14.36
2024-05-09T07:44:43.732Z,14.39
2024-05-09T07:45:52.287Z,14.41
2024-05-09T07:53:30.313Z,14.59
2024-05-09T07:53:49.579Z,14.63
2024-05-09T07:54:54.519Z,14.64
2024-05-09T07:55:57.000Z,14.63
2024-05-09T07:56:59.592Z,14.60
2024-05-09T07:58:02.145Z,14.60
2024-05-09T07:59:04.081Z,14.57
2024-05-09T08:00:06.759Z,14.54
2024-05-09T08:01:09.041Z,14.53
2024-05-09T08:02:11.684Z,14.53
2024-05-09T08:03:13.842Z,14.53
2024-05-09T08:04:15.840Z,14.52
2024-05-09T08:05:17.853Z,14.48
2024-05-09T08:06:19.740Z,14.55
2024-05-09T08:07:21.647Z,14.53
2024-05-09T08:08:23.667Z,14.57
2024-05-09T08:09:25.588Z,14.61
2024-05-09T08:10:29.141Z,14.64
2024-05-09T08:11:32.462Z,14.62
2024-05-09T08:12:34.678Z,14.67
2024-05-09T08:13:36.768Z,14.70
2024-05-09T08:14:38.667Z,14.72
2024-05-09T08:15:40.664Z,14.65
2024-05-09T08:16:42.604Z,14.68
2024-05-09T08:17:44.517Z,14.72
2024-05-09T08:18:46.995Z,14.66
2024-05-09T08:19:49.099Z,14.64
2024-05-09T08:20:51.132Z,14.68
2024-05-09T08:21:53.029Z,14.69
2024-05-09T08:22:55.005Z,14.71
2024-05-09T08:23:56.966Z,14.74
2024-05-09T08:24:59.246Z,14.72
2024-05-09T08:26:01.157Z,14.74
2024-05-09T08:27:03.007Z,14.77
2024-05-09T08:28:05.463Z,14.75
2024-05-09T08:29:07.566Z,14.77
2024-05-09T08:30:15.590Z,14.87
2024-05-09T08:31:24.097Z,14.93
2024-05-09T08:32:27.719Z,14.95
2024-05-09T08:33:30.397Z,14.98
2024-05-09T08:34:32.430Z,14.91
2024-05-09T08:35:34.681Z,14.83
2024-05-09T08:36:36.942Z,14.84
2024-05-09T08:37:40.666Z,14.85
2024-05-09T08:38:42.955Z,14.86
2024-05-09T08:39:44.919Z,14.93
2024-05-09T08:40:47.204Z,14.96
2024-05-09T08:41:50.322Z,15.01
2024-05-09T08:42:56.296Z,15.02
2024-05-09T08:43:58.381Z,15.06
2024-05-09T08:45:00.328Z,15.08
2024-05-09T08:46:02.585Z,15.10
2024-05-09T08:47:08.762Z,15.05
2024-05-09T08:48:12.218Z,15.06
2024-05-09T08:49:15.960Z,15.11
2024-05-09T08:50:31.413Z,15.06
2024-05-09T08:51:39.708Z,15.06
2024-05-09T08:52:41.768Z,15.02
2024-05-09T08:53:43.766Z,14.99
2024-05-09T08:54:46.067Z,15.04
2024-05-09T08:55:51.502Z,15.12
2024-05-09T08:56:53.537Z,15.06
2024-05-09T08:57:55.910Z,15.06
2024-05-09T08:59:01.270Z,15.07
2024-05-09T09:00:07.900Z,15.11
2024-05-09T09:01:12.662Z,15.13
2024-05-09T09:02:15.360Z,15.16
2024-05-09T09:03:18.544Z,15.23
2024-05-09T09:04:22.229Z,15.30
2024-05-09T09:05:27.041Z,15.33
2024-05-09T09:06:29.957Z,15.37
2024-05-09T09:07:33.696Z,15.43
2024-05-09T09:08:38.743Z,15.45
2024-05-09T09:09:43.800Z,15.50
2024-05-09T09:10:47.884Z,15.56
2024-05-09T09:11:50.181Z,15.62
2024-05-09T09:12:59.068Z,15.66
2024-05-09T09:14:01.031Z,15.70
2024-05-09T09:15:02.949Z,15.73
2024-05-09T09:16:05.068Z,15.79
2024-05-09T09:17:14.159Z,15.85
2024-05-09T09:18:16.815Z,15.89
2024-05-09T09:19:19.807Z,16.00
2024-05-09T09:20:28.746Z,16.10
2024-05-09T09:21:36.123Z,16.25
2024-05-09T09:22:38.025Z,16.38
2024-05-09T09:23:40.167Z,16.47
2024-05-09T09:24:42.138Z,16.57
2024-05-09T09:25:44.046Z,16.63
2024-05-09T09:26:46.097Z,16.59
2024-05-09T09:27:48.375Z,16.66
2024-05-09T09:28:50.347Z,16.68
2024-05-09T09:29:52.332Z,16.73
2024-05-09T09:30:54.265Z,16.74
2024-05-09T09:31:59.267Z,16.72
2024-05-09T09:33:01.291Z,16.67
2024-05-09T09:34:07.494Z,16.57
2024-05-09T09:35:09.749Z,16.49
2024-05-09T09:36:14.729Z,16.50
2024-05-09T09:37:20.583Z,16.48
2024-05-09T09:38:23.582Z,16.43
2024-05-09T09:39:27.866Z,16.39
2024-05-09T09:40:35.835Z,16.35
2024-05-09T09:41:42.811Z,16.32
2024-05-09T09:42:48.479Z,16.35
2024-05-09T09:43:50.543Z,16.38
2024-05-09T09:45:01.927Z,16.44
2024-05-09T09:46:11.572Z,16.55
2024-05-09T09:47:15.494Z,16.69
2024-05-09T09:48:17.634Z,16.74
2024-05-09T09:49:19.807Z,16.72
2024-05-09T09:50:27.926Z,16.75
2024-05-09T09:51:36.644Z,16.86
2024-05-09T09:52:39.472Z,16.99
2024-05-09T09:53:42.876Z,17.12
2024-05-09T09:54:46.135Z,17.24
2024-05-09T09:55:48.759Z,17.38
2024-05-09T09:56:51.929Z,17.45
2024-05-09T09:57:56.186Z,17.41
2024-05-09T09:58:58.638Z,17.39
2024-05-09T10:00:00.897Z,17.33
2024-05-09T10:01:02.917Z,17.30
2024-05-09T10:02:05.009Z,17.29
2024-05-09T10:03:07.136Z,17.24
2024-05-09T10:04:10.011Z,17.21
2024-05-09T10:05:12.201Z,17.16
2024-05-09T10:06:15.393Z,17.18
2024-05-09T10:07:19.798Z,17.09
2024-05-09T10:08:23.613Z,17.09
2024-05-09T10:09:26.214Z,17.20
2024-05-09T10:10:32.405Z,17.37
2024-05-09T10:11:41.921Z,17.61
2024-05-09T10:13:08.689Z,17.81
2024-05-09T10:14:10.929Z,18.01
2024-05-09T10:15:12.905Z,18.15
2024-05-09T10:16:20.645Z,18.33
2024-05-09T10:17:23.140Z,18.52
2024-05-09T10:18:28.526Z,18.66
2024-05-09T10:19:34.396Z,18.75
2024-05-09T10:20:42.627Z,18.89
2024-05-09T10:21:47.650Z,19.04
2024-05-09T10:22:50.748Z,19.19
2024-05-09T10:24:00.136Z,19.34
2024-05-09T10:25:06.313Z,19.53
2024-05-09T10:26:08.354Z,19.70
2024-05-09T10:27:10.347Z,19.84
2024-05-09T10:28:12.625Z,20.00
2024-05-09T10:29:16.046Z,20.15
2024-05-09T10:30:29.747Z,20.26
2024-05-09T10:31:39.916Z,20.38
2024-05-09T10:32:42.066Z,20.42
2024-05-09T10:33:52.035Z,20.54
2024-05-09T10:35:16.739Z,20.66
2024-05-09T10:36:22.667Z,20.76
2024-05-09T10:37:25.210Z,20.83
2024-05-09T10:38:27.485Z,20.82
2024-05-09T10:39:35.307Z,20.81
2024-05-09T10:40:38.111Z,20.78
2024-05-09T10:41:40.586Z,20.67
2024-05-09T10:42:42.707Z,20.57
2024-05-09T10:43:44.875Z,20.46
2024-05-09T10:44:47.411Z,20.46
2024-05-09T10:45:49.939Z,20.38
2024-05-09T10:46:54.899Z,20.29
2024-05-09T10:47:57.295Z,20.14
2024-05-09T10:49:01.687Z,19.98
2024-05-09T10:50:15.663Z,19.93
2024-05-09T10:51:24.944Z,20.21
2024-05-09T10:52:26.959Z,20.49
2024-05-09T10:53:29.194Z,20.73
2024-05-09T10:54:40.663Z,20.97
2024-05-09T10:55:42.848Z,21.23
2024-05-09T10:56:44.862Z,21.41
2024-05-09T10:57:46.763Z,21.45
2024-05-09T10:58:51.861Z,21.62
2024-05-09T10:59:53.805Z,21.76
2024-05-09T11:00:56.092Z,21.88
2024-05-09T11:01:59.188Z,22.04
2024-05-09T11:03:01.302Z,22.31
2024-05-09T11:04:04.408Z,22.48
2024-05-09T11:05:06.733Z,22.68
2024-05-09T11:06:10.043Z,22.81
2024-05-09T11:07:16.226Z,22.86
2024-05-09T11:08:19.246Z,22.96
2024-05-09T11:09:21.320Z,23.07
2024-05-09T11:10:27.873Z,23.21
2024-05-09T11:11:35.871Z,23.33
2024-05-09T11:12:38.074Z,23.39
2024-05-09T11:13:40.424Z,23.55
2024-05-09T11:14:52.388Z,23.62
2024-05-09T11:15:54.372Z,23.40
2024-05-09T11:17:06.991Z,23.44
2024-05-09T11:18:24.242Z,23.44
2024-05-09T11:19:31.097Z,23.67
2024-05-09T11:20:36.966Z,23.86
2024-05-09T11:21:39.907Z,23.80
2024-05-09T11:22:42.117Z,23.50
2024-05-09T11:23:44.093Z,23.60
2024-05-09T11:24:46.044Z,23.64
2024-05-09T11:25:50.668Z,23.55
2024-05-09T11:26:52.690Z,23.44
2024-05-09T11:27:58.438Z,23.46
2024-05-09T11:29:00.502Z,23.58
2024-05-09T11:30:03.233Z,23.74
2024-05-09T11:31:10.530Z,23.69
2024-05-09T11:32:15.230Z,23.77
2024-05-09T11:33:18.588Z,23.96
2024-05-09T11:34:20.668Z,24.20
2024-05-09T11:35:22.637Z,24.30
2024-05-09T11:36:24.807Z,24.52
2024-05-09T11:37:27.019Z,24.33
2024-05-09T11:38:28.989Z,24.10
2024-05-09T11:39:31.192Z,23.95
2024-05-09T11:40:34.599Z,23.93
2024-05-09T11:41:37.278Z,23.75
2024-05-09T11:42:39.225Z,23.59
2024-05-09T11:43:41.136Z,23.39
2024-05-09T11:44:43.073Z,23.30
2024-05-09T11:45:45.070Z,23.44
2024-05-09T11:46:47.293Z,23.57
2024-05-09T11:47:49.925Z,23.66
2024-05-09T11:48:52.290Z,23.90
2024-05-09T11:49:56.798Z,24.03
2024-05-09T11:50:58.733Z,24.24
2024-05-09T11:52:00.751Z,24.35
2024-05-09T11:53:02.782Z,24.42
2024-05-09T11:54:04.794Z,24.24
2024-05-09T11:55:07.422Z,24.02
2024-05-09T11:56:11.830Z,23.76
2024-05-09T11:57:13.796Z,23.66
2024-05-09T11:58:18.441Z,23.63
2024-05-09T11:59:21.266Z,23.54
2024-05-09T12:00:33.734Z,23.82
2024-05-09T12:01:39.436Z,24.14
2024-05-09T12:02:41.732Z,24.42
2024-05-09T12:03:43.785Z,24.54
2024-05-09T12:04:47.358Z,24.52
2024-05-09T12:05:49.629Z,24.26
2024-05-09T12:06:52.196Z,23.79
2024-05-09T12:07:56.633Z,23.38
2024-05-09T12:08:58.698Z,23.34
2024-05-09T12:10:00.708Z,23.41
2024-05-09T12:11:02.845Z,23.68
2024-05-09T12:12:05.240Z,23.70
2024-05-09T12:13:07.874Z,23.89
2024-05-09T12:14:09.951Z,24.02
2024-05-09T12:15:12.755Z,24.29
2024-05-09T12:16:14.937Z,24.52
2024-05-09T12:17:17.383Z,24.49
2024-05-09T12:18:19.322Z,24.24
2024-05-09T12:19:21.247Z,24.22
2024-05-09T12:20:28.881Z,24.41
2024-05-09T12:21:38.071Z,24.52
2024-05-09T12:22:40.012Z,24.41
2024-05-09T12:23:42.278Z,24.15
2024-05-09T12:24:44.312Z,23.73
2024-05-09T12:25:46.273Z,23.58
2024-05-09T12:26:48.121Z,23.91
2024-05-09T12:27:50.259Z,24.25
2024-05-09T12:28:52.242Z,24.59
2024-05-09T12:29:54.163Z,24.81
2024-05-09T12:30:56.125Z,24.91
2024-05-09T12:31:58.188Z,24.89
2024-05-09T12:33:00.353Z,24.71
2024-05-09T12:34:02.533Z,24.43
2024-05-09T12:35:04.628Z,24.34
2024-05-09T12:36:06.798Z,24.28
2024-05-09T12:37:08.735Z,24.16
2024-05-09T12:38:10.679Z,23.83
2024-05-09T12:39:12.635Z,23.70
2024-05-09T12:40:22.911Z,23.86
2024-05-09T12:41:32.797Z,24.08
2024-05-09T12:42:34.747Z,24.43
2024-05-09T12:43:36.814Z,24.60
2024-05-09T12:44:38.810Z,24.74
2024-05-09T12:45:40.912Z,25.02
2024-05-09T12:46:43.363Z,25.08
2024-05-09T12:47:45.480Z,25.02
2024-05-09T12:48:47.709Z,25.10
2024-05-09T12:49:50.139Z,24.99
2024-05-09T12:50:52.288Z,24.89
2024-05-09T12:51:54.805Z,25.01
2024-05-09T12:52:56.638Z,24.94
2024-05-09T12:53:58.541Z,25.06
2024-05-09T12:55:00.626Z,25.14
2024-05-09T12:56:04.385Z,25.20
2024-05-09T12:57:07.520Z,25.13
2024-05-09T12:58:09.515Z,25.27
2024-05-09T12:59:11.777Z,25.50
2024-05-09T13:00:23.410Z,25.67
2024-05-09T13:01:30.169Z,25.88
2024-05-09T13:02:32.509Z,25.77
2024-05-09T13:03:34.875Z,25.85
2024-05-09T13:04:37.382Z,25.57
2024-05-09T13:05:41.846Z,25.65
2024-05-09T13:06:44.077Z,25.82
2024-05-09T13:07:47.351Z,25.88
2024-05-09T13:08:49.330Z,25.74
2024-05-09T13:09:51.514Z,25.93
2024-05-09T13:10:54.190Z,26.20
2024-05-09T13:11:56.206Z,26.26
2024-05-09T13:12:58.286Z,26.35
2024-05-09T13:14:00.252Z,26.33
2024-05-09T13:15:02.140Z,26.14
2024-05-09T13:16:04.248Z,26.31
2024-05-09T13:17:06.261Z,26.56
2024-05-09T13:18:08.985Z,26.74
2024-05-09T13:19:10.990Z,26.47
2024-05-09T13:20:19.044Z,26.39
2024-05-09T13:21:28.592Z,26.58
2024-05-09T13:22:30.522Z,26.78
2024-05-09T13:23:32.517Z,26.82
2024-05-09T13:24:34.516Z,26.79
2024-05-09T13:25:37.819Z,26.86
2024-05-09T13:26:40.344Z,27.15
2024-05-09T13:27:42.278Z,27.04
2024-05-09T13:28:44.583Z,26.85
2024-05-09T13:29:46.464Z,26.91
2024-05-09T13:30:48.391Z,26.82
2024-05-09T13:31:50.323Z,26.56
2024-05-09T13:32:52.830Z,26.19
2024-05-09T13:33:54.863Z,25.75
2024-05-09T13:34:57.013Z,25.55
2024-05-09T13:35:58.979Z,25.48
2024-05-09T13:37:01.103Z,25.39
2024-05-09T13:38:04.257Z,25.29
2024-05-09T13:39:06.895Z,25.21
2024-05-09T13:40:12.105Z,24.99
2024-05-09T13:41:16.131Z,24.79
2024-05-09T13:42:18.030Z,24.67